sensor_id;sensor_type;location;lat;lon;timestamp;P1;durP1;ratioP1;P2;durP2;ratioP2
37379;SDS011;23252;-33.992;18.480;2022-12-19T00:03:47;23.00;;;4.80;;
37379;SDS011;23252;-33.992;18.480;2022-12-19T00:06:15;30.40;;;4.88;;
37379;SDS011;23252;-33.992;18.480;2022-12-19T00:08:44;31.55;;;4.75;;
37379;SDS011;23252;-33.992;18.480;2022-12-19T00:11:13;21.15;;;4.07;;
37379;SDS011;23252;-33.992;18.480;2022-12-19T00:13:40;28.73;;;5.18;;
37379;SDS011;23252;-33.992;18.480;2022-12-19T00:16:12;18.42;;;3.83;;
37379;SDS011;23252;-33.992;18.480;2022-12-19T00:18:42;30.98;;;4.90;;
37379;SDS011;23252;-33.992;18.480;2022-12-19T00:21:13;31.20;;;4.25;;
37379;SDS011;23252;-33.992;18.480;2022-12-19T00:23:44;26.98;;;5.20;;
37379;SDS011;23252;-33.992;18.480;2022-12-19T00:28:42;27.60;;;4.45;;
37379;SDS011;23252;-33.992;18.480;2022-12-19T00:31:11;19.25;;;3.95;;
37379;SDS011;23252;-33.992;18.480;2022-12-19T00:36:05;27.33;;;4.40;;
37379;SDS011;23252;-33.992;18.480;2022-12-19T00:38:35;33.33;;;4.68;;
37379;SDS011;23252;-33.992;18.480;2022-12-19T00:41:08;22.65;;;4.05;;
37379;SDS011;23252;-33.992;18.480;2022-12-19T00:43:35;26.05;;;4.70;;
37379;SDS011;23252;-33.992;18.480;2022-12-19T00:51:00;28.33;;;5.05;;
37379;SDS011;23252;-33.992;18.480;2022-12-19T00:53:30;27.77;;;4.35;;
37379;SDS011;23252;-33.992;18.480;2022-12-19T00:58:30;20.17;;;3.90;;
37379;SDS011;23252;-33.992;18.480;2022-12-19T01:00:57;27.55;;;4.63;;
37379;SDS011;23252;-33.992;18.480;2022-12-19T01:03:29;27.15;;;4.40;;
37379;SDS011;23252;-33.992;18.480;2022-12-19T01:05:55;25.05;;;4.15;;
37379;SDS011;23252;-33.992;18.480;2022-12-19T01:08:22;30.48;;;5.03;;
37379;SDS011;23252;-33.992;18.480;2022-12-19T01:10:49;19.08;;;4.03;;
37379;SDS011;23252;-33.992;18.480;2022-12-19T01:13:16;30.60;;;3.70;;
37379;SDS011;23252;-33.992;18.480;2022-12-19T01:15:45;26.40;;;4.20;;
37379;SDS011;23252;-33.992;18.480;2022-12-19T01:18:12;24.63;;;4.25;;
37379;SDS011;23252;-33.992;18.480;2022-12-19T01:20:42;22.65;;;4.07;;
37379;SDS011;23252;-33.992;18.480;2022-12-19T01:23:13;25.33;;;3.95;;
37379;SDS011;23252;-33.992;18.480;2022-12-19T01:25:47;24.77;;;4.07;;
37379;SDS011;23252;-33.992;18.480;2022-12-19T01:28:17;33.42;;;4.32;;
37379;SDS011;23252;-33.992;18.480;2022-12-19T01:30:43;24.77;;;4.15;;
37379;SDS011;23252;-33.992;18.480;2022-12-19T01:33:10;26.08;;;3.90;;
37379;SDS011;23252;-33.992;18.480;2022-12-19T01:35:39;33.28;;;4.07;;
37379;SDS011;23252;-33.992;18.480;2022-12-19T01:38:06;24.55;;;4.30;;
37379;SDS011;23252;-33.992;18.480;2022-12-19T01:40:37;25.38;;;3.63;;
37379;SDS011;23252;-33.992;18.480;2022-12-19T01:43:05;21.60;;;2.95;;
37379;SDS011;23252;-33.992;18.480;2022-12-19T01:45:37;30.95;;;4.65;;
37379;SDS011;23252;-33.992;18.480;2022-12-19T01:48:06;34.45;;;3.92;;
37379;SDS011;23252;-33.992;18.480;2022-12-19T01:53:17;30.13;;;4.20;;
37379;SDS011;23252;-33.992;18.480;2022-12-19T01:55:46;23.65;;;3.17;;
37379;SDS011;23252;-33.992;18.480;2022-12-19T01:58:12;28.92;;;4.50;;
37379;SDS011;23252;-33.992;18.480;2022-12-19T02:00:43;21.67;;;3.50;;
37379;SDS011;23252;-33.992;18.480;2022-12-19T02:03:42;30.40;;;3.78;;
37379;SDS011;23252;-33.992;18.480;2022-12-19T02:06:03;25.98;;;4.03;;
37379;SDS011;23252;-33.992;18.480;2022-12-19T02:08:32;27.67;;;4.60;;
37379;SDS011;23252;-33.992;18.480;2022-12-19T02:10:59;20.02;;;2.97;;
37379;SDS011;23252;-33.992;18.480;2022-12-19T02:13:26;21.70;;;2.95;;
37379;SDS011;23252;-33.992;18.480;2022-12-19T02:31:56;27.75;;;3.47;;
37379;SDS011;23252;-33.992;18.480;2022-12-19T02:42:11;20.23;;;3.30;;
37379;SDS011;23252;-33.992;18.480;2022-12-19T02:44:50;30.23;;;3.97;;
37379;SDS011;23252;-33.992;18.480;2022-12-19T02:47:19;25.40;;;3.40;;
37379;SDS011;23252;-33.992;18.480;2022-12-19T02:49:46;23.65;;;3.20;;
37379;SDS011;23252;-33.992;18.480;2022-12-19T02:54:46;21.35;;;3.15;;
37379;SDS011;23252;-33.992;18.480;2022-12-19T03:00:24;26.60;;;3.55;;
37379;SDS011;23252;-33.992;18.480;2022-12-19T03:06:24;21.38;;;3.88;;
37379;SDS011;23252;-33.992;18.480;2022-12-19T03:08:38;28.45;;;3.95;;
37379;SDS011;23252;-33.992;18.480;2022-12-19T03:11:08;22.50;;;3.42;;
37379;SDS011;23252;-33.992;18.480;2022-12-19T03:13:40;22.38;;;4.05;;
37379;SDS011;23252;-33.992;18.480;2022-12-19T03:16:08;26.08;;;3.95;;
37379;SDS011;23252;-33.992;18.480;2022-12-19T03:18:35;21.60;;;3.53;;
37379;SDS011;23252;-33.992;18.480;2022-12-19T03:21:07;24.95;;;3.28;;
37379;SDS011;23252;-33.992;18.480;2022-12-19T03:23:45;19.90;;;3.38;;
37379;SDS011;23252;-33.992;18.480;2022-12-19T03:26:17;33.42;;;4.10;;
37379;SDS011;23252;-33.992;18.480;2022-12-19T03:31:33;18.25;;;3.33;;
37379;SDS011;23252;-33.992;18.480;2022-12-19T03:34:12;21.90;;;4.07;;
37379;SDS011;23252;-33.992;18.480;2022-12-19T03:36:54;18.33;;;3.20;;
37379;SDS011;23252;-33.992;18.480;2022-12-19T03:39:26;23.77;;;3.05;;
37379;SDS011;23252;-33.992;18.480;2022-12-19T03:41:55;21.48;;;3.78;;
37379;SDS011;23252;-33.992;18.480;2022-12-19T03:44:42;22.08;;;3.30;;
37379;SDS011;23252;-33.992;18.480;2022-12-19T03:47:11;21.02;;;3.10;;
37379;SDS011;23252;-33.992;18.480;2022-12-19T03:49:40;17.20;;;3.45;;
37379;SDS011;23252;-33.992;18.480;2022-12-19T03:54:49;17.73;;;2.75;;
37379;SDS011;23252;-33.992;18.480;2022-12-19T03:57:46;20.15;;;3.05;;
37379;SDS011;23252;-33.992;18.480;2022-12-19T04:00:23;19.98;;;3.20;;
37379;SDS011;23252;-33.992;18.480;2022-12-19T04:02:51;17.25;;;3.55;;
37379;SDS011;23252;-33.992;18.480;2022-12-19T04:05:22;35.38;;;4.57;;
37379;SDS011;23252;-33.992;18.480;2022-12-19T04:07:51;20.40;;;4.00;;
37379;SDS011;23252;-33.992;18.480;2022-12-19T04:10:21;20.10;;;3.13;;
37379;SDS011;23252;-33.992;18.480;2022-12-19T04:12:57;21.35;;;4.00;;
37379;SDS011;23252;-33.992;18.480;2022-12-19T04:15:33;20.27;;;3.85;;
37379;SDS011;23252;-33.992;18.480;2022-12-19T04:18:14;22.48;;;4.15;;
37379;SDS011;23252;-33.992;18.480;2022-12-19T04:20:44;16.65;;;3.00;;
37379;SDS011;23252;-33.992;18.480;2022-12-19T04:23:25;22.30;;;3.85;;
37379;SDS011;23252;-33.992;18.480;2022-12-19T04:26:00;22.52;;;3.33;;
37379;SDS011;23252;-33.992;18.480;2022-12-19T04:28:37;22.15;;;3.00;;
37379;SDS011;23252;-33.992;18.480;2022-12-19T04:31:14;20.60;;;3.13;;
37379;SDS011;23252;-33.992;18.480;2022-12-19T04:33:42;17.10;;;3.10;;
37379;SDS011;23252;-33.992;18.480;2022-12-19T04:36:09;19.63;;;2.70;;
37379;SDS011;23252;-33.992;18.480;2022-12-19T04:38:36;22.10;;;2.90;;
37379;SDS011;23252;-33.992;18.480;2022-12-19T04:41:03;12.50;;;2.47;;
37379;SDS011;23252;-33.992;18.480;2022-12-19T04:43:30;21.77;;;3.05;;
37379;SDS011;23252;-33.992;18.480;2022-12-19T04:45:56;19.37;;;3.40;;
37379;SDS011;23252;-33.992;18.480;2022-12-19T04:48:23;23.95;;;3.25;;
37379;SDS011;23252;-33.992;18.480;2022-12-19T04:50:50;13.38;;;2.80;;
37379;SDS011;23252;-33.992;18.480;2022-12-19T04:53:16;20.07;;;3.00;;
37379;SDS011;23252;-33.992;18.480;2022-12-19T04:55:43;22.70;;;3.40;;
37379;SDS011;23252;-33.992;18.480;2022-12-19T04:58:09;19.70;;;3.03;;
37379;SDS011;23252;-33.992;18.480;2022-12-19T05:00:37;14.98;;;2.55;;
37379;SDS011;23252;-33.992;18.480;2022-12-19T05:03:03;24.10;;;3.60;;
37379;SDS011;23252;-33.992;18.480;2022-12-19T05:05:30;16.92;;;2.22;;
37379;SDS011;23252;-33.992;18.480;2022-12-19T05:07:56;15.55;;;3.28;;
37379;SDS011;23252;-33.992;18.480;2022-12-19T05:10:23;13.18;;;2.35;;
37379;SDS011;23252;-33.992;18.480;2022-12-19T05:12:50;14.00;;;2.35;;
37379;SDS011;23252;-33.992;18.480;2022-12-19T05:15:18;15.23;;;3.10;;
37379;SDS011;23252;-33.992;18.480;2022-12-19T05:17:44;15.63;;;2.88;;
37379;SDS011;23252;-33.992;18.480;2022-12-19T05:20:11;23.08;;;3.13;;
37379;SDS011;23252;-33.992;18.480;2022-12-19T05:22:37;17.35;;;2.90;;
37379;SDS011;23252;-33.992;18.480;2022-12-19T05:25:04;16.73;;;2.67;;
37379;SDS011;23252;-33.992;18.480;2022-12-19T05:27:31;18.73;;;2.60;;
37379;SDS011;23252;-33.992;18.480;2022-12-19T05:29:57;10.13;;;1.88;;
37379;SDS011;23252;-33.992;18.480;2022-12-19T05:32:28;17.67;;;2.40;;
37379;SDS011;23252;-33.992;18.480;2022-12-19T05:34:56;18.65;;;2.40;;
37379;SDS011;23252;-33.992;18.480;2022-12-19T05:37:22;15.53;;;2.33;;
37379;SDS011;23252;-33.992;18.480;2022-12-19T05:39:49;19.27;;;3.67;;
37379;SDS011;23252;-33.992;18.480;2022-12-19T05:42:15;15.73;;;2.13;;
37379;SDS011;23252;-33.992;18.480;2022-12-19T05:44:41;16.07;;;2.80;;
37379;SDS011;23252;-33.992;18.480;2022-12-19T05:47:08;14.13;;;2.50;;
37379;SDS011;23252;-33.992;18.480;2022-12-19T05:49:34;10.35;;;2.22;;
37379;SDS011;23252;-33.992;18.480;2022-12-19T05:52:01;12.38;;;2.20;;
37379;SDS011;23252;-33.992;18.480;2022-12-19T05:54:28;19.38;;;2.92;;
37379;SDS011;23252;-33.992;18.480;2022-12-19T05:56:54;12.20;;;1.90;;
37379;SDS011;23252;-33.992;18.480;2022-12-19T05:59:21;17.57;;;2.40;;
37379;SDS011;23252;-33.992;18.480;2022-12-19T06:01:47;19.08;;;2.40;;
37379;SDS011;23252;-33.992;18.480;2022-12-19T06:04:14;20.43;;;3.00;;
37379;SDS011;23252;-33.992;18.480;2022-12-19T06:06:40;13.25;;;2.38;;
37379;SDS011;23252;-33.992;18.480;2022-12-19T06:09:07;17.65;;;2.38;;
37379;SDS011;23252;-33.992;18.480;2022-12-19T06:11:33;12.63;;;1.90;;
37379;SDS011;23252;-33.992;18.480;2022-12-19T06:14:00;10.95;;;2.05;;
37379;SDS011;23252;-33.992;18.480;2022-12-19T06:16:26;14.10;;;2.22;;
37379;SDS011;23252;-33.992;18.480;2022-12-19T06:18:53;15.30;;;2.55;;
37379;SDS011;23252;-33.992;18.480;2022-12-19T06:21:20;15.90;;;1.92;;
37379;SDS011;23252;-33.992;18.480;2022-12-19T06:23:47;13.15;;;3.00;;
37379;SDS011;23252;-33.992;18.480;2022-12-19T06:26:14;13.60;;;2.10;;
37379;SDS011;23252;-33.992;18.480;2022-12-19T06:28:43;13.35;;;2.35;;
37379;SDS011;23252;-33.992;18.480;2022-12-19T06:31:09;18.73;;;2.60;;
37379;SDS011;23252;-33.992;18.480;2022-12-19T06:33:37;10.35;;;1.90;;
37379;SDS011;23252;-33.992;18.480;2022-12-19T06:36:05;12.70;;;2.05;;
37379;SDS011;23252;-33.992;18.480;2022-12-19T06:38:34;11.98;;;2.83;;
37379;SDS011;23252;-33.992;18.480;2022-12-19T06:41:01;10.60;;;2.80;;
37379;SDS011;23252;-33.992;18.480;2022-12-19T06:43:47;11.55;;;1.90;;
37379;SDS011;23252;-33.992;18.480;2022-12-19T06:46:14;14.40;;;3.13;;
37379;SDS011;23252;-33.992;18.480;2022-12-19T06:48:40;12.38;;;1.83;;
37379;SDS011;23252;-33.992;18.480;2022-12-19T06:51:07;15.52;;;2.92;;
37379;SDS011;23252;-33.992;18.480;2022-12-19T06:53:33;15.00;;;1.92;;
37379;SDS011;23252;-33.992;18.480;2022-12-19T06:56:00;11.88;;;1.90;;
37379;SDS011;23252;-33.992;18.480;2022-12-19T06:58:27;13.05;;;2.17;;
37379;SDS011;23252;-33.992;18.480;2022-12-19T07:00:53;8.63;;;2.25;;
37379;SDS011;23252;-33.992;18.480;2022-12-19T07:03:23;15.20;;;2.97;;
37379;SDS011;23252;-33.992;18.480;2022-12-19T07:05:53;11.35;;;1.90;;
37379;SDS011;23252;-33.992;18.480;2022-12-19T07:08:19;11.65;;;2.20;;
37379;SDS011;23252;-33.992;18.480;2022-12-19T07:10:46;12.40;;;2.45;;
37379;SDS011;23252;-33.992;18.480;2022-12-19T07:13:13;12.23;;;3.15;;
37379;SDS011;23252;-33.992;18.480;2022-12-19T07:15:39;7.70;;;1.65;;
37379;SDS011;23252;-33.992;18.480;2022-12-19T07:18:06;8.68;;;1.67;;
37379;SDS011;23252;-33.992;18.480;2022-12-19T07:20:35;14.70;;;1.75;;
37379;SDS011;23252;-33.992;18.480;2022-12-19T07:23:03;15.43;;;2.63;;
37379;SDS011;23252;-33.992;18.480;2022-12-19T07:25:31;8.13;;;2.00;;
37379;SDS011;23252;-33.992;18.480;2022-12-19T07:27:57;8.18;;;1.73;;
37379;SDS011;23252;-33.992;18.480;2022-12-19T07:30:24;7.22;;;1.50;;
37379;SDS011;23252;-33.992;18.480;2022-12-19T07:32:51;11.52;;;1.95;;
37379;SDS011;23252;-33.992;18.480;2022-12-19T07:35:19;9.73;;;1.60;;
37379;SDS011;23252;-33.992;18.480;2022-12-19T07:40:13;8.73;;;2.00;;
37379;SDS011;23252;-33.992;18.480;2022-12-19T07:42:40;8.23;;;1.45;;
37379;SDS011;23252;-33.992;18.480;2022-12-19T07:45:06;10.65;;;1.90;;
37379;SDS011;23252;-33.992;18.480;2022-12-19T07:50:00;12.63;;;1.73;;
37379;SDS011;23252;-33.992;18.480;2022-12-19T07:52:26;10.40;;;1.38;;
37379;SDS011;23252;-33.992;18.480;2022-12-19T07:54:53;10.40;;;1.30;;
37379;SDS011;23252;-33.992;18.480;2022-12-19T07:57:19;9.85;;;1.30;;
37379;SDS011;23252;-33.992;18.480;2022-12-19T07:59:46;9.57;;;1.55;;
37379;SDS011;23252;-33.992;18.480;2022-12-19T08:02:12;11.07;;;1.83;;
37379;SDS011;23252;-33.992;18.480;2022-12-19T08:04:39;9.55;;;1.85;;
37379;SDS011;23252;-33.992;18.480;2022-12-19T08:07:05;6.47;;;1.25;;
37379;SDS011;23252;-33.992;18.480;2022-12-19T08:09:32;9.90;;;1.50;;
37379;SDS011;23252;-33.992;18.480;2022-12-19T08:11:58;7.30;;;1.52;;
37379;SDS011;23252;-33.992;18.480;2022-12-19T08:14:25;9.55;;;1.60;;
37379;SDS011;23252;-33.992;18.480;2022-12-19T08:16:51;6.78;;;1.38;;
37379;SDS011;23252;-33.992;18.480;2022-12-19T08:19:18;8.10;;;1.52;;
37379;SDS011;23252;-33.992;18.480;2022-12-19T08:21:44;9.48;;;2.05;;
37379;SDS011;23252;-33.992;18.480;2022-12-19T08:24:11;10.45;;;1.38;;
37379;SDS011;23252;-33.992;18.480;2022-12-19T08:26:37;12.80;;;1.48;;
37379;SDS011;23252;-33.992;18.480;2022-12-19T08:29:05;12.27;;;2.28;;
37379;SDS011;23252;-33.992;18.480;2022-12-19T08:31:31;10.05;;;1.83;;
37379;SDS011;23252;-33.992;18.480;2022-12-19T08:33:58;6.10;;;1.30;;
37379;SDS011;23252;-33.992;18.480;2022-12-19T08:36:24;8.70;;;1.08;;
37379;SDS011;23252;-33.992;18.480;2022-12-19T08:38:51;6.85;;;0.85;;
37379;SDS011;23252;-33.992;18.480;2022-12-19T08:41:17;4.95;;;1.17;;
37379;SDS011;23252;-33.992;18.480;2022-12-19T08:43:48;10.65;;;1.40;;
37379;SDS011;23252;-33.992;18.480;2022-12-19T08:46:16;8.20;;;1.85;;
37379;SDS011;23252;-33.992;18.480;2022-12-19T08:48:43;7.88;;;1.30;;
37379;SDS011;23252;-33.992;18.480;2022-12-19T08:51:11;6.85;;;1.13;;
37379;SDS011;23252;-33.992;18.480;2022-12-19T08:53:39;8.93;;;1.20;;
37379;SDS011;23252;-33.992;18.480;2022-12-19T08:56:14;7.70;;;1.13;;
37379;SDS011;23252;-33.992;18.480;2022-12-19T08:58:42;6.00;;;1.27;;
37379;SDS011;23252;-33.992;18.480;2022-12-19T09:01:10;7.53;;;1.33;;
37379;SDS011;23252;-33.992;18.480;2022-12-19T09:03:40;8.05;;;1.20;;
37379;SDS011;23252;-33.992;18.480;2022-12-19T09:06:07;7.43;;;1.38;;
37379;SDS011;23252;-33.992;18.480;2022-12-19T09:08:35;6.35;;;0.88;;
37379;SDS011;23252;-33.992;18.480;2022-12-19T09:11:04;7.57;;;1.33;;
37379;SDS011;23252;-33.992;18.480;2022-12-19T09:13:32;7.70;;;1.40;;
37379;SDS011;23252;-33.992;18.480;2022-12-19T09:16:00;6.35;;;1.42;;
37379;SDS011;23252;-33.992;18.480;2022-12-19T09:18:28;8.73;;;1.30;;
37379;SDS011;23252;-33.992;18.480;2022-12-19T09:20:58;10.55;;;1.30;;
37379;SDS011;23252;-33.992;18.480;2022-12-19T09:23:26;5.18;;;1.05;;
37379;SDS011;23252;-33.992;18.480;2022-12-19T09:25:54;6.50;;;1.17;;
37379;SDS011;23252;-33.992;18.480;2022-12-19T09:28:21;5.45;;;1.25;;
37379;SDS011;23252;-33.992;18.480;2022-12-19T09:30:55;7.45;;;0.95;;
37379;SDS011;23252;-33.992;18.480;2022-12-19T09:33:26;4.50;;;1.00;;
37379;SDS011;23252;-33.992;18.480;2022-12-19T09:35:53;7.28;;;1.60;;
37379;SDS011;23252;-33.992;18.480;2022-12-19T09:38:21;10.88;;;1.65;;
37379;SDS011;23252;-33.992;18.480;2022-12-19T09:43:51;11.15;;;1.48;;
37379;SDS011;23252;-33.992;18.480;2022-12-19T09:49:22;8.93;;;1.08;;
37379;SDS011;23252;-33.992;18.480;2022-12-19T09:54:19;9.82;;;1.30;;
37379;SDS011;23252;-33.992;18.480;2022-12-19T09:56:56;7.65;;;1.40;;
37379;SDS011;23252;-33.992;18.480;2022-12-19T10:02:01;5.20;;;1.02;;
37379;SDS011;23252;-33.992;18.480;2022-12-19T10:04:48;7.93;;;1.50;;
37379;SDS011;23252;-33.992;18.480;2022-12-19T10:07:34;7.38;;;1.05;;
37379;SDS011;23252;-33.992;18.480;2022-12-19T10:10:01;7.57;;;1.30;;
37379;SDS011;23252;-33.992;18.480;2022-12-19T10:30:34;10.45;;;1.20;;
37379;SDS011;23252;-33.992;18.480;2022-12-19T10:35:45;6.35;;;0.93;;
37379;SDS011;23252;-33.992;18.480;2022-12-19T10:41:16;9.60;;;1.42;;
37379;SDS011;23252;-33.992;18.480;2022-12-19T10:46:38;2.65;;;0.90;;
37379;SDS011;23252;-33.992;18.480;2022-12-19T10:49:10;7.70;;;1.15;;
37379;SDS011;23252;-33.992;18.480;2022-12-19T10:51:38;5.57;;;1.23;;
37379;SDS011;23252;-33.992;18.480;2022-12-19T10:54:06;5.22;;;1.00;;
37379;SDS011;23252;-33.992;18.480;2022-12-19T10:56:33;5.75;;;1.00;;
37379;SDS011;23252;-33.992;18.480;2022-12-19T10:59:00;7.20;;;1.05;;
37379;SDS011;23252;-33.992;18.480;2022-12-19T11:01:28;6.18;;;0.80;;
37379;SDS011;23252;-33.992;18.480;2022-12-19T11:09:44;4.50;;;0.80;;
37379;SDS011;23252;-33.992;18.480;2022-12-19T11:12:15;4.25;;;0.90;;
37379;SDS011;23252;-33.992;18.480;2022-12-19T11:15:02;10.93;;;3.47;;
37379;SDS011;23252;-33.992;18.480;2022-12-19T11:17:40;8.85;;;2.13;;
37379;SDS011;23252;-33.992;18.480;2022-12-19T11:22:55;3.50;;;1.00;;
37379;SDS011;23252;-33.992;18.480;2022-12-19T11:25:41;4.30;;;0.93;;
37379;SDS011;23252;-33.992;18.480;2022-12-19T11:28:18;5.65;;;0.80;;
37379;SDS011;23252;-33.992;18.480;2022-12-19T11:31:00;6.45;;;1.20;;
37379;SDS011;23252;-33.992;18.480;2022-12-19T11:33:27;4.57;;;0.80;;
37379;SDS011;23252;-33.992;18.480;2022-12-19T11:35:55;3.45;;;0.80;;
37379;SDS011;23252;-33.992;18.480;2022-12-19T11:38:44;6.32;;;0.95;;
37379;SDS011;23252;-33.992;18.480;2022-12-19T11:41:37;5.50;;;1.13;;
37379;SDS011;23252;-33.992;18.480;2022-12-19T11:44:22;5.78;;;0.80;;
37379;SDS011;23252;-33.992;18.480;2022-12-19T11:47:37;6.47;;;1.40;;
37379;SDS011;23252;-33.992;18.480;2022-12-19T11:50:08;4.35;;;0.98;;
37379;SDS011;23252;-33.992;18.480;2022-12-19T11:55:24;5.10;;;0.73;;
37379;SDS011;23252;-33.992;18.480;2022-12-19T11:57:57;7.10;;;1.25;;
37379;SDS011;23252;-33.992;18.480;2022-12-19T12:00:24;5.07;;;1.05;;
37379;SDS011;23252;-33.992;18.480;2022-12-19T12:05:45;7.25;;;1.10;;
37379;SDS011;23252;-33.992;18.480;2022-12-19T12:11:02;6.35;;;0.90;;
37379;SDS011;23252;-33.992;18.480;2022-12-19T12:17:06;8.98;;;1.45;;
37379;SDS011;23252;-33.992;18.480;2022-12-19T12:30:45;5.20;;;1.05;;
37379;SDS011;23252;-33.992;18.480;2022-12-19T12:33:42;6.22;;;1.00;;
37379;SDS011;23252;-33.992;18.480;2022-12-19T12:39:16;6.05;;;1.08;;
37379;SDS011;23252;-33.992;18.480;2022-12-19T12:44:40;4.80;;;1.00;;
37379;SDS011;23252;-33.992;18.480;2022-12-19T12:47:17;6.70;;;1.20;;
37379;SDS011;23252;-33.992;18.480;2022-12-19T12:49:54;5.07;;;0.80;;
37379;SDS011;23252;-33.992;18.480;2022-12-19T12:52:30;4.50;;;1.10;;
37379;SDS011;23252;-33.992;18.480;2022-12-19T12:54:57;3.75;;;0.82;;
37379;SDS011;23252;-33.992;18.480;2022-12-19T13:02:41;5.13;;;1.02;;
37379;SDS011;23252;-33.992;18.480;2022-12-19T13:10:58;6.28;;;1.08;;
37379;SDS011;23252;-33.992;18.480;2022-12-19T13:19:15;9.38;;;1.20;;
37379;SDS011;23252;-33.992;18.480;2022-12-19T13:24:41;5.55;;;0.80;;
37379;SDS011;23252;-33.992;18.480;2022-12-19T13:32:26;5.88;;;1.25;;
37379;SDS011;23252;-33.992;18.480;2022-12-19T13:34:59;5.35;;;1.13;;
37379;SDS011;23252;-33.992;18.480;2022-12-19T13:37:28;4.88;;;1.20;;
37379;SDS011;23252;-33.992;18.480;2022-12-19T13:42:23;11.73;;;1.05;;
37379;SDS011;23252;-33.992;18.480;2022-12-19T13:45:15;5.28;;;1.63;;
37379;SDS011;23252;-33.992;18.480;2022-12-19T13:47:46;6.80;;;0.88;;
37379;SDS011;23252;-33.992;18.480;2022-12-19T13:52:58;5.35;;;1.35;;
37379;SDS011;23252;-33.992;18.480;2022-12-19T13:55:26;6.30;;;1.58;;
37379;SDS011;23252;-33.992;18.480;2022-12-19T13:57:54;7.43;;;1.20;;
37379;SDS011;23252;-33.992;18.480;2022-12-19T14:00:29;7.43;;;1.10;;
37379;SDS011;23252;-33.992;18.480;2022-12-19T14:03:01;7.32;;;1.40;;
37379;SDS011;23252;-33.992;18.480;2022-12-19T14:07:56;5.57;;;1.17;;
37379;SDS011;23252;-33.992;18.480;2022-12-19T14:10:24;5.88;;;1.23;;
37379;SDS011;23252;-33.992;18.480;2022-12-19T14:12:55;4.70;;;1.10;;
37379;SDS011;23252;-33.992;18.480;2022-12-19T14:15:45;3.75;;;1.20;;
37379;SDS011;23252;-33.992;18.480;2022-12-19T14:18:26;7.60;;;1.40;;
37379;SDS011;23252;-33.992;18.480;2022-12-19T14:23:46;6.00;;;0.90;;
37379;SDS011;23252;-33.992;18.480;2022-12-19T14:26:23;9.00;;;1.48;;
37379;SDS011;23252;-33.992;18.480;2022-12-19T14:28:53;5.40;;;1.67;;
37379;SDS011;23252;-33.992;18.480;2022-12-19T14:31:20;9.68;;;1.40;;
37379;SDS011;23252;-33.992;18.480;2022-12-19T14:33:49;7.95;;;1.38;;
37379;SDS011;23252;-33.992;18.480;2022-12-19T14:36:25;7.60;;;1.45;;
37379;SDS011;23252;-33.992;18.480;2022-12-19T14:38:54;7.18;;;1.30;;
37379;SDS011;23252;-33.992;18.480;2022-12-19T14:44:16;6.45;;;1.30;;
37379;SDS011;23252;-33.992;18.480;2022-12-19T14:46:56;12.55;;;1.55;;
37379;SDS011;23252;-33.992;18.480;2022-12-19T14:49:31;5.68;;;1.38;;
37379;SDS011;23252;-33.992;18.480;2022-12-19T14:52:01;7.68;;;1.77;;
37379;SDS011;23252;-33.992;18.480;2022-12-19T14:54:29;13.00;;;1.75;;
37379;SDS011;23252;-33.992;18.480;2022-12-19T14:56:56;11.13;;;1.75;;
37379;SDS011;23252;-33.992;18.480;2022-12-19T14:59:30;7.88;;;1.55;;
37379;SDS011;23252;-33.992;18.480;2022-12-19T15:02:26;10.88;;;1.50;;
37379;SDS011;23252;-33.992;18.480;2022-12-19T15:07:32;10.40;;;1.48;;
37379;SDS011;23252;-33.992;18.480;2022-12-19T15:10:00;8.77;;;1.80;;
37379;SDS011;23252;-33.992;18.480;2022-12-19T15:18:32;5.13;;;1.38;;
37379;SDS011;23252;-33.992;18.480;2022-12-19T15:21:06;12.05;;;1.65;;
37379;SDS011;23252;-33.992;18.480;2022-12-19T15:23:37;9.27;;;1.40;;
37379;SDS011;23252;-33.992;18.480;2022-12-19T15:26:05;11.77;;;2.40;;
37379;SDS011;23252;-33.992;18.480;2022-12-19T15:28:41;5.55;;;1.40;;
37379;SDS011;23252;-33.992;18.480;2022-12-19T15:31:23;5.95;;;1.27;;
37379;SDS011;23252;-33.992;18.480;2022-12-19T15:33:50;6.05;;;1.45;;
37379;SDS011;23252;-33.992;18.480;2022-12-19T15:36:17;5.55;;;1.13;;
37379;SDS011;23252;-33.992;18.480;2022-12-19T15:38:44;5.63;;;1.08;;
37379;SDS011;23252;-33.992;18.480;2022-12-19T15:41:11;9.55;;;1.48;;
37379;SDS011;23252;-33.992;18.480;2022-12-19T15:43:41;8.82;;;1.38;;
37379;SDS011;23252;-33.992;18.480;2022-12-19T15:46:08;6.68;;;1.17;;
37379;SDS011;23252;-33.992;18.480;2022-12-19T15:48:38;8.65;;;1.50;;
37379;SDS011;23252;-33.992;18.480;2022-12-19T15:51:11;6.85;;;1.42;;
37379;SDS011;23252;-33.992;18.480;2022-12-19T15:53:39;5.97;;;1.10;;
37379;SDS011;23252;-33.992;18.480;2022-12-19T15:56:09;7.10;;;1.40;;
37379;SDS011;23252;-33.992;18.480;2022-12-19T15:58:51;7.73;;;1.47;;
37379;SDS011;23252;-33.992;18.480;2022-12-19T16:01:20;4.63;;;1.20;;
37379;SDS011;23252;-33.992;18.480;2022-12-19T16:06:13;5.10;;;1.23;;
37379;SDS011;23252;-33.992;18.480;2022-12-19T16:08:40;8.75;;;1.70;;
37379;SDS011;23252;-33.992;18.480;2022-12-19T16:11:20;7.80;;;1.40;;
37379;SDS011;23252;-33.992;18.480;2022-12-19T16:13:50;8.50;;;1.10;;
37379;SDS011;23252;-33.992;18.480;2022-12-19T16:16:20;6.85;;;1.42;;
37379;SDS011;23252;-33.992;18.480;2022-12-19T16:18:46;5.82;;;1.00;;
37379;SDS011;23252;-33.992;18.480;2022-12-19T16:21:17;8.65;;;1.30;;
37379;SDS011;23252;-33.992;18.480;2022-12-19T16:23:50;8.07;;;1.30;;
37379;SDS011;23252;-33.992;18.480;2022-12-19T16:26:20;6.80;;;1.77;;
37379;SDS011;23252;-33.992;18.480;2022-12-19T16:29:02;7.05;;;1.33;;
37379;SDS011;23252;-33.992;18.480;2022-12-19T16:31:30;9.73;;;1.70;;
37379;SDS011;23252;-33.992;18.480;2022-12-19T16:33:57;7.38;;;1.35;;
37379;SDS011;23252;-33.992;18.480;2022-12-19T16:36:24;5.65;;;1.27;;
37379;SDS011;23252;-33.992;18.480;2022-12-19T16:38:51;11.05;;;1.90;;
37379;SDS011;23252;-33.992;18.480;2022-12-19T16:41:21;9.13;;;1.70;;
37379;SDS011;23252;-33.992;18.480;2022-12-19T16:43:49;7.95;;;1.92;;
37379;SDS011;23252;-33.992;18.480;2022-12-19T16:46:18;10.30;;;2.00;;
37379;SDS011;23252;-33.992;18.480;2022-12-19T16:48:47;13.05;;;2.00;;
37379;SDS011;23252;-33.992;18.480;2022-12-19T16:53:45;9.55;;;1.95;;
37379;SDS011;23252;-33.992;18.480;2022-12-19T16:59:00;7.25;;;1.83;;
37379;SDS011;23252;-33.992;18.480;2022-12-19T17:01:29;10.15;;;1.77;;
37379;SDS011;23252;-33.992;18.480;2022-12-19T17:03:55;11.07;;;2.00;;
37379;SDS011;23252;-33.992;18.480;2022-12-19T17:06:22;9.43;;;1.40;;
37379;SDS011;23252;-33.992;18.480;2022-12-19T17:08:49;12.25;;;2.10;;
37379;SDS011;23252;-33.992;18.480;2022-12-19T17:11:19;6.68;;;1.67;;
37379;SDS011;23252;-33.992;18.480;2022-12-19T17:13:48;8.15;;;1.92;;
37379;SDS011;23252;-33.992;18.480;2022-12-19T17:16:17;12.75;;;2.10;;
37379;SDS011;23252;-33.992;18.480;2022-12-19T17:18:44;9.65;;;1.65;;
37379;SDS011;23252;-33.992;18.480;2022-12-19T17:21:15;9.52;;;1.65;;
37379;SDS011;23252;-33.992;18.480;2022-12-19T17:23:44;16.10;;;2.50;;
37379;SDS011;23252;-33.992;18.480;2022-12-19T17:26:11;10.15;;;2.10;;
37379;SDS011;23252;-33.992;18.480;2022-12-19T17:28:38;10.57;;;2.00;;
37379;SDS011;23252;-33.992;18.480;2022-12-19T17:31:05;8.90;;;1.33;;
37379;SDS011;23252;-33.992;18.480;2022-12-19T17:33:36;15.40;;;1.95;;
37379;SDS011;23252;-33.992;18.480;2022-12-19T17:36:05;8.68;;;1.67;;
37379;SDS011;23252;-33.992;18.480;2022-12-19T17:38:32;12.00;;;2.25;;
37379;SDS011;23252;-33.992;18.480;2022-12-19T17:40:59;11.77;;;1.98;;